New Ross, Canada
Current Conditions -  °F | °C
As of 8:00 PM on Friday 28 Nov 2014 (Local Time) from CYZX Reporting Station
Overcast Overcast  
Wind Chill: 25°   Ceiling: 3300
Heat Index: 30°   Visibility: 15mi
Dew Point: 21°   Wind: 5mph
Humidity: 69%   Direction: 60°ENE
Pressure: 29.98"   Gusts: NA
Location:  44.73°N, 64.45°W
Report Text: CYZX 290000Z 06004KT 15SM OVC033 M01/M06 A2998 RMK SC8 WNDY HILL 07005KT SLP154
Loading
Personal Weather Stations






























Interactive Weather Map New forecast layout! Learn more

10-Day Weather Forecast

Advertisements
Track Severe Weather on mobile